Time;durP1;ratioP1;P1;durP2;ratioP2;P2;SDS_P1;SDS_P2;PMS_P1;PMS_P2;Temp;Humidity;BMP_temperature;BMP_pressure;BME280_temperature;BME280_humidity;BME280_pressure;Samples;Min_cycle;Max_cycle;Signal;HPM_P1;HPM_P2
2024/01/29 00:02:11;;;;;;;25.27;14.55;;;1.70;99.90;;;1.51;92.04;101929.78;4830799;28;24808;-64
2024/01/29 00:04:33;;;;;;;28.02;15.30;;;1.70;99.90;;;1.49;91.47;101930.69;4832121;28;24925;-64
2024/01/29 00:06:55;;;;;;;27.73;14.40;;;1.70;99.90;;;1.45;91.84;101926.44;4833255;28;24450;-65
2024/01/29 00:09:18;;;;;;;26.17;14.65;;;1.60;99.90;;;1.42;91.42;101922.22;4831300;28;20876;-65
2024/01/29 00:11:40;;;;;;;26.60;14.40;;;1.60;99.90;;;1.38;91.48;101919.69;4834359;28;25070;-65
2024/01/29 00:14:02;;;;;;;27.13;14.70;;;1.60;99.90;;;1.34;91.64;101928.31;4818792;28;24445;-65
2024/01/29 00:16:24;;;;;;;26.63;14.63;;;1.60;99.90;;;1.29;91.82;101917.25;4833808;28;24432;-65
2024/01/29 00:18:46;;;;;;;28.48;14.75;;;1.50;99.90;;;1.25;92.07;101919.00;4834755;28;24528;-65
2024/01/29 00:21:08;;;;;;;27.00;14.63;;;1.50;99.90;;;1.23;91.69;101922.47;4833652;28;25459;-65
2024/01/29 00:23:30;;;;;;;26.90;15.10;;;1.50;99.90;;;1.21;91.81;101919.94;4827000;28;24428;-65
2024/01/29 00:25:52;;;;;;;26.05;14.30;;;1.40;99.90;;;1.22;91.86;101911.34;4835802;28;24464;-64
2024/01/29 00:28:14;;;;;;;26.23;14.60;;;1.40;99.90;;;1.22;91.94;101915.63;4829322;28;25046;-65
2024/01/29 00:30:36;;;;;;;25.73;13.80;;;1.40;99.90;;;1.23;91.70;101914.75;4835615;28;24432;-65
2024/01/29 00:32:58;;;;;;;24.85;13.63;;;1.40;99.90;;;1.23;92.03;101912.19;4827086;28;24452;-62
2024/01/29 00:35:20;;;;;;;25.03;13.83;;;1.40;99.90;;;1.22;91.72;101910.47;4833312;28;24435;-64
2024/01/29 00:37:42;;;;;;;25.67;14.18;;;1.40;99.90;;;1.20;92.18;101917.34;4834948;28;24421;-65
2024/01/29 00:40:05;;;;;;;28.15;14.32;;;1.40;99.90;;;1.20;91.96;101917.34;4827631;28;24444;-65
2024/01/29 00:42:28;;;;;;;25.95;13.73;;;1.40;99.90;;;1.22;92.65;101913.91;4826914;28;24428;-65
2024/01/29 00:44:49;;;;;;;26.25;14.25;;;1.40;99.90;;;1.26;92.63;101917.28;4832358;28;24994;-65
2024/01/29 00:47:11;;;;;;;29.30;14.20;;;1.50;99.90;;;1.24;92.56;101914.72;4835968;28;24435;-66
2024/01/29 00:49:33;;;;;;;27.93;14.03;;;1.40;99.90;;;1.28;92.47;101913.81;4836933;28;24547;-65
2024/01/29 00:51:56;;;;;;;28.10;14.55;;;1.50;99.90;;;1.31;92.12;101920.66;4835673;28;24457;-66
2024/01/29 00:54:20;;;;;;;23.42;13.02;;;1.50;99.90;;;1.31;92.19;101916.34;4839914;28;24519;-65
2024/01/29 00:56:42;;;;;;;24.65;13.00;;;1.50;99.90;;;1.30;92.58;101917.22;4840189;28;25074;-63
2024/01/29 00:59:04;;;;;;;25.00;13.30;;;1.50;99.90;;;1.32;92.69;101923.19;4834339;28;24448;-65
2024/01/29 01:01:26;;;;;;;22.98;13.10;;;1.50;99.90;;;1.33;93.06;101924.91;4838315;28;24521;-66
2024/01/29 01:03:48;;;;;;;27.58;13.70;;;1.50;99.90;;;1.35;92.99;101925.72;4830337;28;24507;-65
2024/01/29 01:06:11;;;;;;;27.23;14.40;;;1.50;99.90;;;1.36;93.24;101924.00;4828132;28;24991;-63
2024/01/29 01:08:33;;;;;;;24.98;13.10;;;1.60;99.90;;;1.37;92.42;101923.97;4832466;28;24859;-65
2024/01/29 01:10:55;;;;;;;23.67;13.65;;;1.60;99.90;;;1.35;92.98;101923.16;4834633;28;24432;-62
2024/01/29 01:13:17;;;;;;;24.35;14.00;;;1.60;99.90;;;1.35;93.26;101920.59;4834270;28;24575;-63
2024/01/29 01:15:39;;;;;;;22.98;13.38;;;1.50;99.90;;;1.37;93.31;101921.41;4834061;28;24424;-66
2024/01/29 01:18:03;;;;;;;23.23;12.98;;;1.60;99.90;;;1.36;92.81;101919.69;4821780;28;24445;-66
2024/01/29 01:20:25;;;;;;;24.73;13.35;;;1.50;99.90;;;1.36;93.01;101914.56;4831561;28;24455;-67
2024/01/29 01:22:47;;;;;;;21.13;13.03;;;1.60;99.90;;;1.36;92.95;101919.69;4837687;28;24527;-66
2024/01/29 01:25:09;;;;;;;24.30;13.20;;;1.50;99.90;;;1.33;92.93;101922.34;4836605;28;24430;-66
2024/01/29 01:27:31;;;;;;;24.08;13.00;;;1.60;99.90;;;1.31;92.52;101918.06;4836086;28;24444;-67
2024/01/29 01:29:53;;;;;;;27.30;13.32;;;1.50;99.90;;;1.27;92.82;101924.13;4838862;28;24794;-66
2024/01/29 01:32:15;;;;;;;24.33;12.93;;;1.50;99.90;;;1.22;92.84;101926.75;4827585;28;24499;-66
2024/01/29 01:34:38;;;;;;;25.63;13.00;;;1.50;99.90;;;1.20;92.51;101922.50;4815949;28;24581;-67
2024/01/29 01:37:00;;;;;;;25.40;14.30;;;1.40;99.90;;;1.16;93.15;101926.84;4836992;28;24432;-66
2024/01/29 01:39:22;;;;;;;24.08;13.10;;;1.40;99.90;;;1.16;92.65;101919.13;4831988;28;24444;-67
2024/01/29 01:41:49;;;;;;;22.38;12.60;;;1.40;99.90;;;1.16;92.93;101921.69;4838751;28;20781;-67
2024/01/29 01:44:11;;;;;;;26.40;13.65;;;1.40;99.90;;;1.16;92.70;101916.56;4835346;28;24479;-66
2024/01/29 01:46:33;;;;;;;23.23;13.20;;;1.40;99.90;;;1.12;92.86;101921.75;4836661;28;25061;-66
2024/01/29 01:48:56;;;;;;;22.07;12.80;;;1.30;99.90;;;1.09;92.75;101914.94;4837004;28;24536;-66
2024/01/29 01:51:20;;;;;;;23.00;12.15;;;1.30;99.90;;;1.05;92.98;101912.41;4837604;28;24459;-67
2024/01/29 01:53:44;;;;;;;18.70;11.50;;;1.30;99.90;;;0.98;93.09;101919.34;4838115;28;24615;-66
2024/01/29 01:56:07;;;;;;;21.33;11.70;;;1.20;99.90;;;0.96;93.52;101913.38;4812463;28;24476;-67
2024/01/29 01:58:31;;;;;;;20.95;12.07;;;1.20;99.90;;;0.97;94.20;101917.66;4826089;28;24531;-66
2024/01/29 02:00:56;;;;;;;24.23;12.57;;;1.20;99.90;;;0.97;94.50;101922.81;4812085;28;24448;-66
2024/01/29 02:03:18;;;;;;;22.05;12.82;;;1.20;99.90;;;0.96;94.80;101918.50;4829406;28;24589;-66
2024/01/29 02:05:40;;;;;;;21.80;12.00;;;1.20;99.90;;;0.98;94.46;101921.91;4835562;28;24483;-68
2024/01/29 02:08:03;;;;;;;23.58;12.05;;;1.20;99.90;;;1.02;94.96;101921.03;4834559;28;24799;-64
2024/01/29 02:10:25;;;;;;;21.33;11.23;;;1.20;99.90;;;1.07;94.49;101920.94;4830264;28;24799;-66
2024/01/29 02:12:47;;;;;;;19.92;11.43;;;1.30;99.90;;;1.07;94.17;101924.38;4836947;28;24458;-66
2024/01/29 02:15:09;;;;;;;18.65;10.82;;;1.30;99.90;;;1.09;94.19;101919.22;4833064;28;24428;-65
2024/01/29 02:17:31;;;;;;;20.52;11.02;;;1.30;99.90;;;1.08;94.04;101923.53;4833635;28;24510;-67
2024/01/29 02:19:53;;;;;;;20.88;11.40;;;1.30;99.90;;;1.03;93.56;101919.28;4837412;28;24439;-67
2024/01/29 02:22:15;;;;;;;18.80;10.40;;;1.30;99.90;;;0.98;94.02;101921.91;4835238;28;24448;-66
2024/01/29 02:24:37;;;;;;;19.97;11.10;;;1.20;99.90;;;0.98;94.30;101921.09;4836391;28;25240;-66
2024/01/29 02:26:59;;;;;;;22.58;11.60;;;1.30;99.90;;;0.97;94.73;101927.09;4835118;28;24479;-66
2024/01/29 02:29:21;;;;;;;19.02;11.00;;;1.20;99.90;;;0.93;95.63;101922.84;4837520;28;24432;-65
2024/01/29 02:31:43;;;;;;;19.75;11.00;;;1.20;99.90;;;0.93;95.53;101922.84;4829223;28;24539;-65
2024/01/29 02:34:05;;;;;;;19.55;11.35;;;1.20;99.90;;;0.91;95.99;101928.03;4821933;28;24993;-66
2024/01/29 02:36:27;;;;;;;20.10;10.80;;;1.20;99.90;;;0.90;95.88;101931.44;4816735;28;24432;-66
2024/01/29 02:38:49;;;;;;;19.52;11.48;;;1.10;99.90;;;0.89;96.58;101923.75;4835981;28;24887;-66
2024/01/29 02:41:11;;;;;;;18.77;10.38;;;1.10;99.90;;;0.89;96.81;101906.63;4836059;28;24431;-67
2024/01/29 02:43:33;;;;;;;19.17;10.80;;;1.10;99.90;;;0.93;96.61;101905.72;4836576;28;24990;-67
2024/01/29 02:45:55;;;;;;;18.42;10.50;;;1.10;99.90;;;0.94;96.85;101912.53;4834192;28;24459;-67
2024/01/29 02:48:17;;;;;;;19.02;10.00;;;1.20;99.90;;;0.99;97.46;101918.50;4837511;28;24460;-68
2024/01/29 02:50:39;;;;;;;20.58;10.90;;;1.20;99.90;;;1.01;97.26;101910.75;4837687;28;24876;-68
2024/01/29 02:53:01;;;;;;;17.77;10.60;;;1.20;99.90;;;1.04;97.51;101911.59;4837039;28;24495;-68
2024/01/29 02:55:23;;;;;;;18.48;9.93;;;1.20;99.90;;;1.09;97.83;101914.94;4837067;28;24522;-66
2024/01/29 02:57:45;;;;;;;16.80;9.90;;;1.30;99.90;;;1.15;98.47;101917.41;4810048;28;24927;-67
2024/01/29 03:00:07;;;;;;;15.55;9.82;;;1.30;99.90;;;1.21;98.59;101919.06;4827472;28;24859;-66
2024/01/29 03:02:29;;;;;;;16.25;10.10;;;1.40;99.90;;;1.27;98.56;101930.13;4834211;28;24472;-68
2024/01/29 03:04:51;;;;;;;16.63;9.60;;;1.40;99.90;;;1.30;98.09;101922.34;4835214;28;24429;-68
2024/01/29 03:07:14;;;;;;;15.98;9.52;;;1.50;99.90;;;1.36;97.67;101924.00;4835698;28;24436;-67
2024/01/29 03:09:36;;;;;;;15.48;9.50;;;1.60;99.90;;;1.38;97.69;101925.69;4837473;28;24457;-67
2024/01/29 03:11:58;;;;;;;17.05;9.52;;;1.60;99.90;;;1.40;97.04;101921.38;4828668;28;25068;-66
2024/01/29 03:14:20;;;;;;;16.65;9.80;;;1.60;99.90;;;1.44;97.33;101928.19;4834746;28;24527;-67
2024/01/29 03:16:42;;;;;;;17.63;10.00;;;1.60;99.90;;;1.44;97.04;101928.19;4814058;28;24551;-67
2024/01/29 03:19:04;;;;;;;15.43;9.60;;;1.60;99.90;;;1.46;97.50;101930.72;4831903;28;24455;-67
2024/01/29 03:21:27;;;;;;;14.18;9.18;;;1.60;99.90;;;1.48;96.85;101929.84;4835510;28;24515;-66
2024/01/29 03:23:49;;;;;;;14.68;9.48;;;1.70;99.90;;;1.48;96.61;101927.25;4835825;28;24464;-66
2024/01/29 03:26:11;;;;;;;14.50;9.30;;;1.70;99.90;;;1.51;96.29;101923.81;4827747;28;24475;-65
2024/01/29 03:28:33;;;;;;;13.93;8.68;;;1.70;99.90;;;1.52;96.38;101913.47;4836533;28;24962;-67
2024/01/29 03:30:55;;;;;;;18.70;9.45;;;1.70;99.90;;;1.55;96.36;101916.00;4835887;28;24547;-66
2024/01/29 03:33:17;;;;;;;16.10;10.00;;;1.70;99.90;;;1.58;96.31;101916.84;4828492;28;25028;-66
2024/01/29 03:35:39;;;;;;;13.85;8.77;;;1.80;99.90;;;1.61;95.81;101912.50;4830508;28;24444;-66
2024/01/29 03:38:00;;;;;;;16.77;9.75;;;1.80;99.90;;;1.61;96.00;101903.91;4812527;28;24495;-65
2024/01/29 03:40:22;;;;;;;16.77;10.00;;;1.80;99.90;;;1.66;95.49;101907.28;4833788;28;24515;-67
2024/01/29 03:42:44;;;;;;;16.73;9.18;;;1.80;99.90;;;1.66;95.67;101909.84;4832367;28;25438;-67
2024/01/29 03:45:07;;;;;;;16.38;9.80;;;1.80;99.90;;;1.66;95.72;101908.16;4827434;28;25020;-66
2024/01/29 03:47:29;;;;;;;13.98;8.77;;;1.80;99.90;;;1.66;94.80;101907.28;4828668;28;24452;-66
2024/01/29 03:49:51;;;;;;;15.48;9.45;;;1.80;99.90;;;1.64;95.24;101907.28;4833256;28;24484;-67
2024/01/29 03:52:13;;;;;;;14.85;9.50;;;1.80;99.90;;;1.61;95.13;101906.50;4835717;28;24483;-66
2024/01/29 03:54:35;;;;;;;16.03;9.83;;;1.80;99.90;;;1.63;95.03;101909.91;4834393;28;24860;-66
2024/01/29 03:56:57;;;;;;;17.48;10.30;;;1.80;99.90;;;1.63;95.37;101907.31;4835317;28;24787;-67
2024/01/29 03:59:19;;;;;;;16.23;9.70;;;1.80;99.90;;;1.60;95.24;101904.81;4830627;28;24524;-67
2024/01/29 04:01:41;;;;;;;17.48;10.40;;;1.80;99.90;;;1.58;95.21;101898.84;4830736;28;24544;-67
2024/01/29 04:04:03;;;;;;;19.30;10.20;;;1.80;99.90;;;1.53;95.09;101897.16;4823651;28;24980;-67
2024/01/29 04:06:25;;;;;;;14.93;9.30;;;1.70;99.90;;;1.52;94.80;101899.75;4834760;28;25073;-66
2024/01/29 04:08:48;;;;;;;18.17;9.70;;;1.70;99.90;;;1.53;95.77;101892.00;4835146;28;24428;-66
2024/01/29 04:11:10;;;;;;;18.20;10.07;;;1.70;99.90;;;1.58;95.46;101896.25;4833361;28;24765;-66
2024/01/29 04:13:34;;;;;;;15.30;9.55;;;1.70;99.90;;;1.58;95.36;101894.53;4833976;28;24484;-66
2024/01/29 04:15:56;;;;;;;17.20;9.13;;;1.70;99.90;;;1.58;95.41;101887.66;4833114;28;24540;-67
2024/01/29 04:18:18;;;;;;;14.77;9.27;;;1.80;99.90;;;1.61;95.10;101891.91;4835803;28;24962;-67
2024/01/29 04:20:40;;;;;;;14.60;8.60;;;1.80;99.90;;;1.67;95.50;101886.66;4826003;28;25102;-67
2024/01/29 04:23:02;;;;;;;13.52;8.68;;;1.90;99.90;;;1.67;95.73;101889.25;4839574;28;24991;-67
2024/01/29 04:25:24;;;;;;;16.50;9.40;;;1.90;99.90;;;1.69;96.11;101891.78;4838311;28;24451;-67
2024/01/29 04:27:47;;;;;;;15.13;9.20;;;1.90;99.90;;;1.68;96.57;101895.25;4834542;28;24452;-68
2024/01/29 04:30:09;;;;;;;17.77;9.30;;;1.90;99.90;;;1.70;96.67;101899.50;4832637;28;24431;-66
2024/01/29 04:32:31;;;;;;;13.68;9.07;;;1.90;99.90;;;1.74;96.50;101896.00;4832557;28;24452;-67
2024/01/29 04:34:53;;;;;;;16.25;9.73;;;1.90;99.90;;;1.73;96.40;101890.84;4839883;28;24436;-66
2024/01/29 04:37:15;;;;;;;14.57;9.10;;;1.90;99.90;;;1.75;96.28;101901.97;4834510;28;24495;-66
2024/01/29 04:39:40;;;;;;;13.00;9.27;;;1.90;99.90;;;1.75;95.98;101889.09;4842512;28;25032;-66
2024/01/29 04:42:02;;;;;;;15.15;8.90;;;1.90;99.90;;;1.76;95.51;101894.25;4834416;28;24453;-67
2024/01/29 04:44:25;;;;;;;14.75;9.40;;;1.90;99.90;;;1.76;95.83;101899.41;4841487;28;24435;-66
2024/01/29 04:46:48;;;;;;;14.68;8.13;;;1.90;99.90;;;1.77;95.08;101900.25;4840913;28;24463;-66
2024/01/29 04:49:10;;;;;;;15.27;9.13;;;2.00;99.90;;;1.78;95.47;101895.06;4842097;28;24519;-66
2024/01/29 04:51:34;;;;;;;14.05;8.68;;;2.00;99.90;;;1.74;95.99;101890.00;4833102;28;24856;-66
2024/01/29 04:53:56;;;;;;;15.27;8.95;;;1.90;99.90;;;1.72;95.79;101894.31;4837377;28;24550;-67
2024/01/29 04:56:18;;;;;;;17.75;8.82;;;1.90;99.90;;;1.70;95.99;101888.34;4832061;28;24451;-66
2024/01/29 04:58:40;;;;;;;13.95;8.50;;;1.90;99.90;;;1.64;96.57;101899.56;4832619;28;24436;-66
2024/01/29 05:01:03;;;;;;;14.43;8.75;;;1.90;99.90;;;1.66;96.80;101897.00;4836996;28;24519;-66
2024/01/29 05:03:26;;;;;;;13.77;8.82;;;1.80;99.90;;;1.63;96.20;101890.16;4839809;28;24490;-67
2024/01/29 05:05:48;;;;;;;14.88;9.20;;;1.80;99.90;;;1.61;96.54;101896.19;4834924;28;24454;-66
2024/01/29 05:08:10;;;;;;;16.17;9.07;;;1.80;99.90;;;1.62;96.42;101896.16;4840764;28;24839;-68
2024/01/29 05:10:32;;;;;;;14.23;8.82;;;1.80;99.90;;;1.61;96.68;101888.50;4836381;28;24475;-66
2024/01/29 05:12:54;;;;;;;13.27;8.10;;;1.80;99.90;;;1.63;96.88;101884.16;4839810;28;24448;-66
2024/01/29 05:15:16;;;;;;;13.93;8.68;;;1.80;99.90;;;1.64;97.20;101885.88;4827762;28;24450;-67
2024/01/29 05:17:38;;;;;;;13.85;8.82;;;1.80;99.90;;;1.62;97.43;101890.19;4836170;28;25014;-66
2024/01/29 05:20:01;;;;;;;14.68;8.35;;;1.80;99.90;;;1.61;98.05;101883.34;4840276;28;24641;-69
2024/01/29 05:22:23;;;;;;;14.87;9.27;;;1.80;99.90;;;1.61;98.21;101894.50;4819018;28;24913;-69
2024/01/29 05:24:45;;;;;;;12.60;8.32;;;1.80;99.90;;;1.65;98.47;101896.13;4841251;28;24456;-69
2024/01/29 05:27:07;;;;;;;13.93;9.07;;;1.90;99.90;;;1.65;98.32;101901.28;4841423;28;24440;-69
2024/01/29 05:29:28;;;;;;;13.05;8.85;;;1.80;99.90;;;1.67;98.41;101906.41;4831010;28;24472;-69
2024/01/29 05:31:51;;;;;;;16.50;9.37;;;1.80;99.90;;;1.66;98.66;101907.28;4839616;28;25016;-68
2024/01/29 05:34:13;;;;;;;13.98;8.82;;;1.80;99.90;;;1.68;98.06;101910.69;4836978;28;24456;-66
2024/01/29 05:36:36;;;;;;;13.77;8.80;;;1.90;99.90;;;1.71;98.74;101913.19;4827496;28;24448;-66
2024/01/29 05:38:57;;;;;;;11.73;7.82;;;1.90;99.90;;;1.66;98.60;101915.00;4835631;28;25365;-67
2024/01/29 05:41:19;;;;;;;14.13;8.43;;;1.90;99.90;;;1.63;98.35;101915.03;4837120;28;24475;-67
2024/01/29 05:43:41;;;;;;;13.88;8.82;;;1.90;99.90;;;1.62;98.99;101914.19;4829432;28;24450;-67
2024/01/29 05:46:03;;;;;;;15.88;8.77;;;1.80;99.90;;;1.62;99.31;101918.50;4833687;28;24535;-67
2024/01/29 05:48:25;;;;;;;13.60;8.40;;;1.80;99.90;;;1.61;99.05;101909.06;4836723;28;24455;-67
2024/01/29 05:50:47;;;;;;;14.20;8.25;;;1.80;99.90;;;1.54;99.45;101908.31;4835377;28;24451;-65
2024/01/29 05:53:10;;;;;;;14.60;8.70;;;1.80;99.90;;;1.52;99.10;101916.06;4838106;28;24492;-67
2024/01/29 05:55:32;;;;;;;15.45;8.63;;;1.80;99.90;;;1.53;99.35;101911.78;4829508;28;24451;-66
2024/01/29 05:57:54;;;;;;;17.10;8.73;;;1.70;99.90;;;1.56;99.63;101925.41;4833751;28;24424;-66
2024/01/29 06:00:18;;;;;;;13.70;9.13;;;1.80;99.90;;;1.60;99.63;101930.53;4828210;28;24448;-66
2024/01/29 06:02:43;;;;;;;13.37;8.90;;;1.80;99.90;;;1.62;99.12;101932.19;4836817;28;24521;-67
2024/01/29 06:05:05;;;;;;;15.65;8.85;;;1.80;99.90;;;1.66;99.51;101935.59;4835437;28;24543;-66
2024/01/29 06:07:27;;;;;;;14.38;9.20;;;1.80;99.90;;;1.68;99.18;101937.28;4834732;28;24528;-68
2024/01/29 06:09:49;;;;;;;13.50;8.70;;;1.80;99.90;;;1.69;99.20;101935.53;4838264;28;24487;-66
2024/01/29 06:12:11;;;;;;;13.55;8.75;;;1.90;99.90;;;1.70;98.53;101929.53;4835283;28;24704;-67
2024/01/29 06:14:33;;;;;;;12.70;8.63;;;1.90;99.90;;;1.72;98.13;101932.91;4834317;28;24563;-66
2024/01/29 06:16:56;;;;;;;13.35;8.32;;;1.90;99.90;;;1.70;97.77;101925.22;4835954;28;25104;-66
2024/01/29 06:19:19;;;;;;;15.85;8.75;;;1.90;99.90;;;1.68;97.42;101931.28;4830111;28;24811;-69
2024/01/29 06:21:48;;;;;;;15.55;9.20;;;1.90;99.90;;;1.67;97.41;101924.41;4830594;28;24463;-66
2024/01/29 06:24:11;;;;;;;13.98;8.93;;;1.80;99.90;;;1.70;97.64;101930.38;4835987;28;24425;-67
2024/01/29 06:26:33;;;;;;;14.70;9.00;;;1.90;99.90;;;1.74;97.91;101932.03;4829363;28;24540;-67
2024/01/29 06:28:55;;;;;;;12.15;8.40;;;1.90;99.90;;;1.74;97.60;101932.03;4823861;28;24449;-67
2024/01/29 06:31:18;;;;;;;12.70;8.38;;;1.90;99.90;;;1.73;96.79;101932.03;4833878;28;24523;-67
2024/01/29 06:33:40;;;;;;;12.20;8.02;;;1.90;99.90;;;1.68;96.98;101932.13;4832035;28;24463;-67
2024/01/29 06:36:02;;;;;;;13.68;8.20;;;1.90;99.90;;;1.66;97.14;101944.16;4836468;28;24474;-67
2024/01/29 06:38:24;;;;;;;14.50;8.40;;;1.90;99.90;;;1.62;97.06;101933.94;4832018;28;24455;-67
2024/01/29 06:40:46;;;;;;;15.07;8.40;;;1.90;99.90;;;1.61;96.93;101939.94;4834999;28;25001;-69
2024/01/29 06:43:08;;;;;;;13.73;8.40;;;1.80;99.90;;;1.54;97.69;101940.03;4832174;28;24476;-67
2024/01/29 06:45:30;;;;;;;13.27;8.47;;;1.80;99.90;;;1.48;98.00;101945.28;4825871;28;24492;-66
2024/01/29 06:47:53;;;;;;;13.45;8.30;;;1.70;99.90;;;1.41;98.24;101940.22;4835868;28;25023;-67
2024/01/29 06:50:15;;;;;;;15.90;8.40;;;1.70;99.90;;;1.39;98.29;101944.53;4829317;28;24459;-67
2024/01/29 06:52:37;;;;;;;13.57;8.48;;;1.60;99.90;;;1.32;98.50;101946.31;4837202;28;24444;-67
2024/01/29 06:55:00;;;;;;;13.38;7.88;;;1.60;99.90;;;1.35;98.72;101951.44;4831316;28;24479;-67
2024/01/29 06:57:22;;;;;;;10.60;7.35;;;1.60;99.90;;;1.33;98.83;101950.63;4837122;28;24539;-67
2024/01/29 06:59:44;;;;;;;13.93;8.10;;;1.60;99.90;;;1.34;98.54;101957.44;4823442;28;24499;-68
2024/01/29 07:02:07;;;;;;;12.35;8.00;;;1.60;99.90;;;1.36;98.76;101960.84;4832276;28;24519;-68
2024/01/29 07:04:29;;;;;;;16.25;9.30;;;1.60;99.90;;;1.34;99.21;101965.16;4835069;28;25257;-67
2024/01/29 07:06:51;;;;;;;13.55;8.38;;;1.60;99.90;;;1.36;99.11;101967.72;4835913;28;24515;-67
2024/01/29 07:09:13;;;;;;;15.82;9.10;;;1.60;99.90;;;1.40;99.02;101972.81;4834605;28;24863;-68
2024/01/29 07:11:35;;;;;;;14.57;9.70;;;1.60;99.90;;;1.44;99.79;101976.19;4836981;28;24443;-66
2024/01/29 07:13:57;;;;;;;15.57;9.45;;;1.60;99.90;;;1.54;99.83;101986.34;4826841;28;24583;-67
2024/01/29 07:16:19;;;;;;;14.25;9.23;;;1.70;99.90;;;1.62;99.44;101982.81;4835685;28;24482;-68
2024/01/29 07:18:42;;;;;;;16.33;9.77;;;1.80;99.90;;;1.69;99.31;101981.84;4837255;28;24482;-67
2024/01/29 07:21:04;;;;;;;18.67;10.30;;;1.80;99.90;;;1.80;98.67;101998.84;4837164;28;24431;-67
2024/01/29 07:23:26;;;;;;;15.30;9.50;;;1.90;99.90;;;1.91;98.79;101991.81;4833926;28;24445;-65
2024/01/29 07:25:48;;;;;;;17.77;9.82;;;2.00;99.90;;;2.02;98.11;102004.53;4836472;28;24506;-68
2024/01/29 07:28:10;;;;;;;16.27;9.77;;;2.10;99.90;;;2.13;97.84;102006.03;4833784;28;24989;-67
2024/01/29 07:30:32;;;;;;;16.42;9.90;;;2.20;99.90;;;2.26;96.78;102009.28;4836841;28;24436;-67
2024/01/29 07:32:54;;;;;;;14.87;9.13;;;2.30;99.90;;;2.38;95.70;102009.09;4793524;28;24847;-69
2024/01/29 07:35:17;;;;;;;16.73;9.95;;;2.40;99.90;;;2.48;95.36;102009.78;4832527;28;24428;-68
2024/01/29 07:37:40;;;;;;;19.40;10.38;;;2.50;99.90;;;2.60;95.49;102025.88;4835593;28;24420;-68
2024/01/29 07:40:03;;;;;;;17.65;10.13;;;2.60;99.90;;;2.75;95.11;102025.59;4830193;28;24432;-69
2024/01/29 07:42:25;;;;;;;16.88;10.30;;;2.70;99.90;;;2.89;93.98;102022.78;4834932;28;24982;-67
2024/01/29 07:44:48;;;;;;;17.50;9.90;;;2.80;99.90;;;3.14;94.09;102027.47;4834654;28;24528;-68
2024/01/29 07:47:10;;;;;;;15.57;9.68;;;3.00;99.90;;;3.55;92.36;102020.63;4825354;28;25077;-67
2024/01/29 07:49:32;;;;;;;15.57;9.98;;;3.30;99.90;;;4.08;91.12;102024.59;4835528;28;24463;-68
2024/01/29 07:51:54;;;;;;;16.83;10.00;;;3.70;99.90;;;4.60;87.71;102023.28;4832848;28;24574;-67
2024/01/29 07:54:16;;;;;;;15.65;9.85;;;4.10;99.90;;;5.22;84.69;102028.53;4832915;28;24479;-67
2024/01/29 07:56:42;;;;;;;14.88;9.80;;;4.60;99.90;;;5.85;81.48;102031.91;4834599;28;25052;-67
2024/01/29 07:59:04;;;;;;;17.35;9.57;;;5.20;99.90;;;6.51;78.65;102025.47;4823186;28;20830;-68
2024/01/29 08:01:26;;;;;;;15.75;9.60;;;5.70;99.90;;;6.86;74.53;102033.75;4834065;28;24545;-68
2024/01/29 08:03:48;;;;;;;16.05;9.23;;;6.20;99.90;;;6.92;73.75;102030.09;4829169;28;24454;-68
2024/01/29 08:06:10;;;;;;;13.35;8.90;;;6.40;99.90;;;7.06;74.49;102033.06;4835035;28;24571;-68
2024/01/29 08:08:36;;;;;;;12.15;8.60;;;6.60;99.90;;;7.42;73.12;102026.53;4823277;28;24507;-68
2024/01/29 08:10:59;;;;;;;14.07;8.77;;;6.80;99.90;;;8.29;70.42;102026.63;4830409;28;24497;-68
2024/01/29 08:13:20;;;;;;;16.15;8.98;;;7.30;99.90;;;9.29;67.84;102023.19;4831715;28;24514;-68
2024/01/29 08:15:42;;;;;;;14.30;8.87;;;8.10;99.90;;;10.32;63.55;102024.44;4836571;28;24894;-68
2024/01/29 08:18:05;;;;;;;13.98;8.85;;;9.00;99.90;;;11.38;59.33;102029.38;4830752;28;24456;-67
2024/01/29 08:20:27;;;;;;;14.57;9.00;;;9.90;99.90;;;12.43;55.64;102028.72;4835977;28;24531;-67
2024/01/29 08:22:51;;;;;;;13.45;9.13;;;10.90;99.90;;;13.36;53.21;102029.25;4831790;28;24834;-69
2024/01/29 08:25:13;;;;;;;12.65;9.13;;;11.80;99.90;;;13.87;51.07;102033.88;4834993;28;24876;-68
2024/01/29 08:27:35;;;;;;;15.25;9.90;;;12.50;99.90;;;14.54;49.39;102038.28;4832655;28;24455;-68
2024/01/29 08:29:57;;;;;;;13.50;9.23;;;13.10;99.90;;;15.22;47.81;102036.22;4835537;28;24487;-68
2024/01/29 08:32:21;;;;;;;14.95;9.57;;;13.70;99.90;;;16.09;45.42;102030.88;4829759;28;25017;-68
2024/01/29 08:34:43;;;;;;;14.75;9.70;;;14.40;99.90;;;17.27;43.16;102033.25;4828167;28;24449;-68
2024/01/29 08:37:05;;;;;;;13.75;9.70;;;15.40;98.60;;;18.08;40.96;102036.44;4835033;28;24869;-68
2024/01/29 08:39:27;;;;;;;14.75;9.50;;;16.30;95.80;;;18.76;39.07;102037.88;4834142;28;24447;-66
2024/01/29 08:41:49;;;;;;;13.77;9.88;;;17.00;93.50;;;18.91;37.44;102036.56;4829750;28;24447;-68
2024/01/29 08:44:11;;;;;;;14.23;9.80;;;17.30;90.60;;;19.09;37.76;102035.00;4829840;28;25012;-70
2024/01/29 08:46:33;;;;;;;14.52;10.15;;;17.60;89.70;;;19.42;37.08;102034.78;4834830;28;20782;-68
2024/01/29 08:48:56;;;;;;;13.65;9.45;;;17.80;87.70;;;19.73;36.12;102033.75;4827539;28;24452;-67
2024/01/29 08:51:18;;;;;;;14.60;10.02;;;18.00;85.00;;;19.73;35.68;102028.47;4825342;28;24531;-68
2024/01/29 08:53:40;;;;;;;13.68;9.80;;;18.10;82.40;;;19.79;35.82;102029.72;4834291;28;24506;-68
2024/01/29 08:56:07;;;;;;;13.20;9.90;;;18.10;81.60;;;19.90;35.00;102033.09;4831899;28;24455;-68
2024/01/29 08:58:28;;;;;;;14.05;9.73;;;18.20;80.40;;;19.81;34.90;102023.31;4831141;28;24539;-68
2024/01/29 09:00:53;;;;;;;13.25;10.15;;;18.10;78.90;;;19.77;34.93;102036.97;4829367;28;25051;-68
2024/01/29 09:03:16;;;;;;;15.23;10.00;;;18.10;78.70;;;19.77;34.62;102032.50;4823392;28;25045;-70
2024/01/29 09:05:38;;;;;;;14.18;9.30;;;18.10;77.80;;;19.73;34.79;102025.81;4827645;28;24459;-69
2024/01/29 09:08:01;;;;;;;12.75;9.20;;;18.10;77.20;;;19.12;34.75;102024.16;4829440;28;24814;-67
2024/01/29 09:10:36;;;;;;;13.65;9.10;;;18.00;75.90;;;18.37;36.54;102029.63;4830904;28;24479;-69
2024/01/29 09:12:58;;;;;;;12.48;9.25;;;17.50;76.90;;;17.84;36.90;102033.97;4836657;28;20759;-71
2024/01/29 09:15:20;;;;;;;10.88;8.80;;;17.10;77.00;;;18.15;37.15;102027.06;4836299;28;24444;-71
2024/01/29 09:17:42;;;;;;;14.63;9.60;;;16.90;78.10;;;18.57;36.80;102039.38;4837710;28;24922;-71
2024/01/29 09:20:08;;;;;;;12.18;9.40;;;17.00;78.30;;;19.14;36.17;102035.44;4826801;28;24444;-69
2024/01/29 09:22:30;;;;;;;12.73;9.40;;;17.30;78.00;;;19.81;34.79;102030.41;4837034;28;24428;-70
2024/01/29 09:24:52;;;;;;;11.13;8.98;;;17.90;76.80;;;20.04;33.65;102032.69;4836747;28;24463;-70
2024/01/29 09:27:14;;;;;;;12.98;8.85;;;18.30;74.90;;;20.08;34.28;102043.88;4828021;28;25105;-69
2024/01/29 09:29:36;;;;;;;10.90;9.10;;;18.40;74.70;;;18.27;36.53;102035.78;4832795;28;25242;-70
2024/01/29 09:31:58;;;;;;;13.50;8.90;;;17.40;75.20;;;16.17;40.40;102026.72;4835779;28;24455;-71
2024/01/29 09:34:22;;;;;;;14.82;9.05;;;15.90;77.80;;;14.12;44.49;102035.75;4836591;28;25128;-70
2024/01/29 09:36:44;;;;;;;12.73;8.55;;;14.20;81.60;;;12.20;49.02;102020.50;4836248;28;24433;-70
2024/01/29 09:39:07;;;;;;;12.50;7.65;;;12.70;86.30;;;10.67;53.40;102030.47;4832261;28;24460;-69
2024/01/29 09:41:34;;;;;;;9.30;6.90;;;11.30;90.80;;;9.75;56.46;102025.38;4835793;28;24639;-69
2024/01/29 09:43:58;;;;;;;8.68;6.53;;;10.20;93.30;;;9.20;58.91;102024.44;4831086;28;24479;-70
2024/01/29 09:46:21;;;;;;;10.05;6.30;;;9.40;96.10;;;8.91;60.40;102026.63;4825378;28;24535;-67
2024/01/29 09:48:44;;;;;;;7.97;6.70;;;9.00;98.70;;;8.71;61.49;102030.06;4826035;28;24476;-68
2024/01/29 09:51:07;;;;;;;7.63;5.75;;;8.70;99.90;;;8.73;62.04;102027.41;4811751;28;24451;-70
2024/01/29 09:53:34;;;;;;;8.63;5.63;;;8.60;99.90;;;8.62;63.00;102035.69;4817478;28;24589;-70
2024/01/29 09:55:56;;;;;;;8.60;6.40;;;8.50;99.90;;;8.66;62.83;102036.38;4819059;28;24864;-70